createdAt,value
2022-12-27T12:58:32.133Z,1.17
2022-12-27T13:10:44.956Z,1.10
2022-12-27T13:19:11.285Z,1.10
2022-12-27T13:26:57.463Z,1.17
2022-12-27T13:34:44.413Z,1.27
2022-12-27T13:42:40.219Z,1.00
2022-12-27T13:50:28.731Z,1.17
2022-12-27T13:58:37.275Z,1.00
2022-12-27T14:06:34.990Z,0.65
2022-12-27T14:14:06.842Z,1.08
2022-12-27T14:21:52.051Z,0.60
2022-12-27T14:29:50.487Z,0.75
2022-12-27T14:38:06.333Z,0.82
2022-12-27T14:46:01.258Z,0.95
2022-12-27T14:54:06.285Z,0.50
2022-12-27T15:02:23.011Z,1.10
2022-12-27T15:10:33.446Z,0.88
2022-12-27T15:19:07.469Z,1.23
2022-12-27T15:27:19.863Z,1.73
2022-12-27T15:35:03.793Z,1.02
2022-12-27T15:42:49.134Z,0.93
2022-12-27T16:07:00.559Z,1.20
2022-12-27T16:31:41.870Z,0.80
2022-12-27T16:39:22.797Z,0.95
2022-12-27T16:47:07.351Z,0.75
2022-12-27T16:55:36.377Z,1.15
2022-12-27T17:03:38.277Z,0.77
2022-12-27T17:11:25.043Z,1.30
2022-12-27T17:19:03.395Z,1.75
2022-12-27T17:27:16.522Z,1.73
2022-12-27T17:34:59.568Z,1.80
2022-12-27T17:43:09.351Z,2.38
2022-12-27T17:50:44.237Z,2.90
2022-12-27T17:58:16.780Z,3.28
2022-12-27T18:05:49.370Z,4.18
2022-12-27T18:13:24.004Z,4.22
2022-12-27T18:21:04.090Z,4.32
2022-12-27T18:28:35.930Z,4.28
2022-12-27T18:36:09.404Z,5.32
2022-12-27T18:43:44.007Z,4.70
2022-12-27T18:51:15.735Z,6.68
2022-12-27T18:59:25.775Z,4.82
2022-12-27T19:07:06.761Z,5.93
2022-12-27T19:14:42.792Z,5.93
2022-12-27T19:22:47.802Z,6.70
2022-12-27T19:30:38.364Z,5.15
2022-12-27T19:38:47.471Z,6.10
2022-12-27T19:46:20.212Z,7.65
2022-12-27T19:53:57.500Z,7.32
2022-12-27T20:01:30.616Z,7.28
2022-12-27T20:09:02.404Z,6.93
2022-12-27T20:16:34.203Z,7.10
2022-12-27T20:24:06.429Z,7.47
2022-12-27T20:31:45.178Z,6.50
2022-12-27T20:39:17.288Z,6.72
2022-12-27T20:46:49.910Z,6.22
2022-12-27T20:54:21.778Z,6.75
2022-12-27T21:01:57.176Z,5.63
2022-12-27T21:09:29.272Z,6.75
2022-12-27T21:17:01.170Z,6.53
2022-12-27T21:24:33.347Z,6.18
2022-12-27T21:32:05.761Z,6.30
2022-12-27T21:39:37.600Z,6.03
2022-12-27T21:47:12.232Z,5.88
2022-12-27T21:54:44.012Z,5.63
2022-12-27T22:02:18.015Z,5.70
2022-12-27T22:09:52.978Z,5.63
2022-12-27T22:17:26.414Z,6.32
2022-12-27T22:25:01.174Z,5.65
2022-12-27T22:32:34.285Z,6.00
2022-12-27T22:40:06.831Z,5.22
2022-12-27T22:47:58.555Z,4.50
2022-12-27T22:55:30.368Z,5.93
2022-12-27T23:03:03.707Z,5.10
2022-12-27T23:10:35.584Z,5.30
2022-12-27T23:18:07.391Z,4.97
2022-12-27T23:25:39.123Z,5.13
2022-12-27T23:33:10.969Z,5.15
2022-12-27T23:40:42.710Z,5.25
2022-12-27T23:48:14.495Z,4.38
2022-12-27T23:55:59.603Z,5.28
